createdAt,value
2018-06-14T00:02:51.968Z,10.23
2018-06-14T00:07:45.206Z,11.17
2018-06-14T00:12:38.464Z,5.47
2018-06-14T00:17:31.789Z,6.63
2018-06-14T00:22:25.018Z,7.20
2018-06-14T00:27:18.300Z,7.87
2018-06-14T00:32:11.775Z,7.80
2018-06-14T00:37:05.046Z,8.33
2018-06-14T00:41:58.296Z,10.20
2018-06-14T00:46:51.551Z,12.53
2018-06-14T00:51:44.778Z,7.90
2018-06-14T00:56:54.973Z,8.60
2018-06-14T01:01:48.629Z,12.07
2018-06-14T01:06:41.898Z,10.10
2018-06-14T01:11:35.153Z,10.68
2018-06-14T01:16:28.418Z,7.93
2018-06-14T01:21:21.677Z,14.33
2018-06-14T01:26:15.716Z,8.20
2018-06-14T01:31:08.969Z,8.53
2018-06-14T01:36:02.181Z,7.87
2018-06-14T01:40:55.438Z,7.87
2018-06-14T01:45:48.902Z,7.75
2018-06-14T01:50:42.159Z,6.47
2018-06-14T01:55:35.408Z,7.65
2018-06-14T02:00:28.842Z,6.87
2018-06-14T02:05:22.166Z,9.70
2018-06-14T02:10:15.408Z,7.07
2018-06-14T02:15:08.668Z,8.43
2018-06-14T02:20:01.940Z,8.93
2018-06-14T02:24:55.156Z,6.50
2018-06-14T02:29:48.387Z,5.28
2018-06-14T02:34:41.671Z,7.03
2018-06-14T02:39:34.955Z,14.83
2018-06-14T02:44:28.278Z,6.30
2018-06-14T02:49:22.479Z,6.17
2018-06-14T02:54:15.754Z,9.23
2018-06-14T02:59:08.995Z,10.50
2018-06-14T03:04:02.327Z,7.77
2018-06-14T03:08:55.590Z,7.03
2018-06-14T03:13:48.874Z,8.55
2018-06-14T03:18:43.316Z,7.10
2018-06-14T03:23:36.582Z,7.07
2018-06-14T03:28:29.874Z,12.23
2018-06-14T03:33:23.384Z,7.87
2018-06-14T03:38:16.714Z,7.75
2018-06-14T03:43:10.025Z,8.37
2018-06-14T03:48:03.283Z,9.10
2018-06-14T03:52:56.486Z,9.13
2018-06-14T03:57:49.716Z,7.72
2018-06-14T04:02:42.933Z,7.60
2018-06-14T04:07:36.149Z,7.80
2018-06-14T04:12:29.428Z,8.23
2018-06-14T04:17:22.654Z,7.37
2018-06-14T04:22:15.923Z,7.20
2018-06-14T04:27:09.156Z,7.58
2018-06-14T04:32:02.400Z,6.47
2018-06-14T04:36:55.618Z,8.38
2018-06-14T04:41:48.864Z,5.90
2018-06-14T04:46:42.113Z,8.50
2018-06-14T04:51:39.880Z,13.40
2018-06-14T04:56:33.172Z,6.63
2018-06-14T05:01:26.428Z,6.25
2018-06-14T05:06:19.721Z,4.73
2018-06-14T05:11:12.984Z,6.83
2018-06-14T05:16:06.239Z,4.73
2018-06-14T05:20:59.490Z,4.75
2018-06-14T05:25:52.728Z,5.83
2018-06-14T05:30:46.001Z,7.47
2018-06-14T05:35:39.246Z,7.57
2018-06-14T05:40:32.516Z,5.12
2018-06-14T05:45:25.805Z,7.33
2018-06-14T05:50:19.076Z,6.72
2018-06-14T05:55:12.379Z,8.53
2018-06-14T06:00:09.783Z,6.90
2018-06-14T06:05:03.091Z,6.57
2018-06-14T06:09:56.335Z,6.78
2018-06-14T06:14:49.586Z,6.30
2018-06-14T06:19:42.864Z,5.78
2018-06-14T06:24:36.109Z,9.07
2018-06-14T06:29:29.476Z,5.35
2018-06-14T06:34:22.712Z,5.63
2018-06-14T06:39:15.946Z,6.08
2018-06-14T06:44:09.508Z,8.20
2018-06-14T06:49:02.828Z,5.90
2018-06-14T06:53:56.068Z,9.70
2018-06-14T06:58:49.445Z,6.93
2018-06-14T07:03:42.679Z,6.92
2018-06-14T07:08:35.942Z,7.53
2018-06-14T07:13:29.377Z,12.25
2018-06-14T07:18:22.695Z,6.57
2018-06-14T07:23:15.947Z,8.53
2018-06-14T07:28:09.196Z,7.10
2018-06-14T07:33:02.847Z,9.57
2018-06-14T07:37:56.436Z,7.23
2018-06-14T07:42:49.646Z,10.73
2018-06-14T07:47:42.896Z,9.37
2018-06-14T07:52:36.146Z,6.03
2018-06-14T07:57:29.415Z,5.37
2018-06-14T08:02:22.683Z,6.83
2018-06-14T08:07:16.098Z,9.80
2018-06-14T08:12:09.436Z,9.67
2018-06-14T08:17:02.734Z,7.07
2018-06-14T08:21:55.963Z,10.47
2018-06-14T08:26:49.228Z,5.83
2018-06-14T08:31:42.665Z,5.33
2018-06-14T08:36:35.930Z,6.57
2018-06-14T08:41:29.226Z,6.33
2018-06-14T08:46:22.502Z,6.53
2018-06-14T08:51:15.792Z,7.37
2018-06-14T08:56:09.073Z,4.97
2018-06-14T09:01:02.336Z,4.07
2018-06-14T09:05:55.660Z,3.92
2018-06-14T09:10:48.900Z,4.60
2018-06-14T09:15:42.259Z,7.87
2018-06-14T09:20:37.102Z,6.80
2018-06-14T09:25:30.483Z,6.80
2018-06-14T09:30:23.759Z,6.03
2018-06-14T09:35:17.054Z,6.67
2018-06-14T09:40:10.382Z,7.10
2018-06-14T09:45:03.888Z,8.80
2018-06-14T09:49:57.172Z,4.67
2018-06-14T09:54:50.479Z,5.58
2018-06-14T09:59:43.780Z,4.33
2018-06-14T10:04:37.062Z,4.93
2018-06-14T10:09:30.432Z,10.40
2018-06-14T10:14:23.696Z,5.60
2018-06-14T10:19:17.002Z,6.60
2018-06-14T10:24:10.289Z,5.00
2018-06-14T10:29:03.521Z,5.37
2018-06-14T10:33:56.894Z,5.93
2018-06-14T10:38:50.500Z,5.03
2018-06-14T10:43:43.748Z,7.55
2018-06-14T10:48:37.359Z,3.97
2018-06-14T10:53:30.656Z,6.63
2018-06-14T10:58:23.920Z,5.60
2018-06-14T11:03:17.253Z,3.33
2018-06-14T11:08:10.502Z,9.40
2018-06-14T11:13:03.786Z,3.60
2018-06-14T11:17:57.149Z,4.42
2018-06-14T11:22:50.414Z,3.17
2018-06-14T11:27:43.697Z,5.28
2018-06-14T11:32:36.985Z,6.33
2018-06-14T11:37:30.318Z,4.05
2018-06-14T11:42:23.567Z,7.53
2018-06-14T11:47:16.837Z,5.50
2018-06-14T11:52:10.124Z,4.67
2018-06-14T11:57:03.438Z,5.05
2018-06-14T12:01:57.001Z,3.33
2018-06-14T12:06:50.597Z,3.27
2018-06-14T12:11:43.868Z,3.07
2018-06-14T12:16:37.126Z,2.60
2018-06-14T12:21:30.451Z,5.57
2018-06-14T12:26:23.663Z,4.90
2018-06-14T12:31:16.942Z,4.67
2018-06-14T12:36:10.218Z,2.50
2018-06-14T12:41:03.484Z,4.67
2018-06-14T12:45:56.848Z,4.62
2018-06-14T12:50:50.144Z,5.67
2018-06-14T12:55:43.496Z,6.75
2018-06-14T13:00:36.748Z,4.83
2018-06-14T13:05:30.043Z,4.10
2018-06-14T13:10:23.346Z,3.80
2018-06-14T13:15:16.681Z,2.50
2018-06-14T13:20:09.977Z,4.87
2018-06-14T13:25:03.241Z,6.00
2018-06-14T13:29:56.598Z,2.57
2018-06-14T13:34:49.894Z,4.70
2018-06-14T13:39:43.152Z,3.40
2018-06-14T13:44:36.482Z,3.50
2018-06-14T13:49:29.831Z,4.73
2018-06-14T13:54:23.126Z,5.80
2018-06-14T13:59:16.395Z,2.87
2018-06-14T14:04:09.674Z,4.43
2018-06-14T14:09:03.288Z,2.58
2018-06-14T14:13:56.541Z,4.13
2018-06-14T14:18:49.892Z,3.30
2018-06-14T14:23:43.244Z,3.00
2018-06-14T14:28:36.563Z,3.43
2018-06-14T14:33:29.831Z,5.03
2018-06-14T14:38:23.570Z,4.20
2018-06-14T14:43:16.839Z,3.93
2018-06-14T14:48:10.432Z,3.80
2018-06-14T14:53:03.823Z,5.30
2018-06-14T14:57:57.149Z,3.55
2018-06-14T15:02:50.400Z,5.07
2018-06-14T15:07:43.650Z,4.63
2018-06-14T15:12:36.952Z,4.10
2018-06-14T15:17:30.307Z,4.37
2018-06-14T15:22:23.586Z,4.28
2018-06-14T15:27:16.867Z,7.37
2018-06-14T15:32:10.144Z,9.17
2018-06-14T15:37:03.433Z,3.93
2018-06-14T15:41:56.710Z,5.07
2018-06-14T15:46:49.974Z,7.50
2018-06-14T15:51:43.291Z,6.67
2018-06-14T15:56:40.443Z,6.60
2018-06-14T16:01:33.718Z,10.13
2018-06-14T16:06:26.984Z,8.08
2018-06-14T16:11:20.271Z,5.67
2018-06-14T16:16:13.649Z,5.95
2018-06-14T16:21:06.945Z,8.07
2018-06-14T16:26:00.190Z,6.53
2018-06-14T16:30:53.502Z,6.70
2018-06-14T16:35:46.889Z,7.95
2018-06-14T16:40:40.153Z,8.50
2018-06-14T16:45:33.467Z,8.43
2018-06-14T16:50:26.749Z,7.40
2018-06-14T16:55:20.167Z,7.77
2018-06-14T17:00:13.479Z,9.10
2018-06-14T17:05:06.817Z,6.73
2018-06-14T17:10:00.680Z,7.80
2018-06-14T17:14:53.944Z,6.60
2018-06-14T17:19:47.205Z,6.30
2018-06-14T17:24:40.479Z,8.60
2018-06-14T17:29:33.925Z,8.20
2018-06-14T17:34:28.110Z,7.83
2018-06-14T17:39:22.014Z,6.00
2018-06-14T17:44:15.298Z,9.07
2018-06-14T17:49:08.598Z,8.77
2018-06-14T17:54:01.879Z,10.37
2018-06-14T17:58:55.498Z,8.63
2018-06-14T18:03:48.778Z,8.13
2018-06-14T18:08:42.022Z,7.45
2018-06-14T18:13:35.288Z,11.10
2018-06-14T18:18:28.539Z,10.60
2018-06-14T18:23:21.799Z,7.83
2018-06-14T18:28:15.094Z,9.60
2018-06-14T18:33:08.446Z,8.83
2018-06-14T18:38:01.842Z,9.30
2018-06-14T18:42:55.171Z,8.80
2018-06-14T18:47:48.490Z,8.73
2018-06-14T18:52:41.769Z,11.88
2018-06-14T18:57:35.116Z,9.27
2018-06-14T19:02:28.610Z,9.90
2018-06-14T19:07:21.918Z,9.70
2018-06-14T19:12:15.271Z,8.33
2018-06-14T19:17:08.689Z,8.45
2018-06-14T19:22:02.114Z,14.80
2018-06-14T19:26:55.641Z,9.07
2018-06-14T19:31:49.303Z,10.20
2018-06-14T19:36:42.661Z,8.73
2018-06-14T19:41:36.075Z,8.20
2018-06-14T19:46:29.318Z,9.40
2018-06-14T19:51:22.633Z,7.92
2018-06-14T19:56:16.250Z,8.20
2018-06-14T20:01:09.581Z,9.00
2018-06-14T20:06:02.990Z,8.25
2018-06-14T20:10:56.272Z,7.93
2018-06-14T20:15:49.566Z,7.95
2018-06-14T20:20:42.912Z,9.93
2018-06-14T20:25:36.204Z,8.58
2018-06-14T20:30:29.496Z,9.10
2018-06-14T20:35:22.851Z,9.00
2018-06-14T20:40:16.137Z,12.23
2018-06-14T20:45:09.367Z,11.13
2018-06-14T20:50:02.735Z,11.33
2018-06-14T20:54:56.021Z,11.67
2018-06-14T20:59:49.475Z,10.95
2018-06-14T21:04:42.743Z,11.43
2018-06-14T21:09:36.072Z,10.07
2018-06-14T21:14:29.341Z,9.53
2018-06-14T21:19:22.604Z,10.77
2018-06-14T21:24:15.950Z,11.38
2018-06-14T21:29:09.408Z,10.47
2018-06-14T21:34:02.918Z,10.23
2018-06-14T21:38:56.190Z,13.20
2018-06-14T21:43:49.478Z,15.37
2018-06-14T21:48:43.152Z,10.40
2018-06-14T21:53:36.424Z,10.70
2018-06-14T21:58:29.706Z,10.17
2018-06-14T22:03:28.533Z,9.28
2018-06-14T22:08:21.780Z,8.80
2018-06-14T22:13:15.077Z,9.13
2018-06-14T22:18:08.440Z,11.40
2018-06-14T22:23:01.765Z,8.27
2018-06-14T22:27:55.041Z,8.03
2018-06-14T22:35:09.905Z,8.33
2018-06-14T22:40:03.214Z,9.20
2018-06-14T22:44:56.984Z,10.32
2018-06-14T22:49:50.280Z,7.70
2018-06-14T22:54:43.592Z,7.20
2018-06-14T22:59:36.854Z,9.63
2018-06-14T23:04:30.199Z,10.03
2018-06-14T23:10:39.295Z,11.73
2018-06-14T23:15:32.611Z,11.37
2018-06-14T23:20:26.812Z,8.75
2018-06-14T23:25:20.805Z,9.70
2018-06-14T23:30:14.717Z,7.67
2018-06-14T23:35:07.972Z,9.27
2018-06-14T23:40:01.253Z,8.88
2018-06-14T23:44:55.914Z,9.27
2018-06-14T23:49:49.179Z,8.57
2018-06-14T23:54:42.432Z,8.60
2018-06-14T23:59:35.840Z,9.33
